createdAt,value
2023-07-03T10:15:59.552Z,5.25
2023-07-03T10:19:20.344Z,4.50
2023-07-03T10:21:52.857Z,4.50
2023-07-03T10:24:24.784Z,4.32
2023-07-03T10:27:01.337Z,4.32
2023-07-03T10:29:38.938Z,4.88
2023-07-03T10:32:16.959Z,4.68
2023-07-03T10:34:59.104Z,4.68
2023-07-03T10:37:31.296Z,4.20
2023-07-03T10:40:11.007Z,4.50
2023-07-03T10:42:49.359Z,4.50
2023-07-03T10:45:20.752Z,5.40
2023-07-03T10:47:57.703Z,4.68
2023-07-03T10:50:37.538Z,4.95
2023-07-03T10:53:17.086Z,4.55
2023-07-03T10:55:53.302Z,5.22
2023-07-03T10:58:31.060Z,4.45
2023-07-03T11:01:11.140Z,4.13
2023-07-03T11:03:49.815Z,3.63
2023-07-03T11:06:38.273Z,3.90
2023-07-03T11:09:16.387Z,4.03
2023-07-03T11:11:55.860Z,5.00
2023-07-03T11:14:34.718Z,4.28
2023-07-03T11:17:14.236Z,4.68
2023-07-03T11:19:54.347Z,5.05
2023-07-03T11:25:15.722Z,4.60
2023-07-03T11:27:54.035Z,4.25
2023-07-03T11:30:27.716Z,4.70
2023-07-03T11:33:00.892Z,4.07
2023-07-03T11:41:06.219Z,4.00
2023-07-03T11:43:43.862Z,4.30
2023-07-03T11:46:23.193Z,4.20
2023-07-03T11:49:00.214Z,4.32
2023-07-03T11:51:38.137Z,3.80
2023-07-03T11:54:29.143Z,4.25
2023-07-03T11:57:09.560Z,3.95
2023-07-03T11:59:43.437Z,4.63
2023-07-03T12:02:48.876Z,3.60
2023-07-03T12:05:49.917Z,4.80
2023-07-03T12:08:46.382Z,4.05
2023-07-03T12:11:21.959Z,4.18
2023-07-03T12:14:00.284Z,4.57
2023-07-03T12:16:36.734Z,4.70
2023-07-03T12:19:11.120Z,4.40
2023-07-03T12:21:51.541Z,4.18
2023-07-03T12:24:25.800Z,3.80
2023-07-03T12:27:05.100Z,4.15
2023-07-03T12:29:39.251Z,4.40
2023-07-03T12:32:12.186Z,4.15
2023-07-03T12:34:45.760Z,3.90
2023-07-03T12:37:21.267Z,4.30
2023-07-03T12:39:53.402Z,3.78
2023-07-03T12:42:29.799Z,4.20
2023-07-03T12:45:16.132Z,4.10
2023-07-03T12:47:47.389Z,4.53
2023-07-03T12:50:20.632Z,4.60
2023-07-03T12:53:00.770Z,4.32
2023-07-03T12:55:37.717Z,4.35
2023-07-03T13:00:43.625Z,4.10
2023-07-03T13:03:19.302Z,4.18
2023-07-03T13:05:50.654Z,4.22
2023-07-03T13:08:22.504Z,3.67
2023-07-03T13:11:03.652Z,4.28
2023-07-03T13:13:37.936Z,4.18
2023-07-03T13:16:18.418Z,3.92
2023-07-03T13:19:03.316Z,4.18
2023-07-03T13:21:34.826Z,3.50
2023-07-03T13:24:15.454Z,4.28
2023-07-03T13:26:52.377Z,4.47
2023-07-03T13:29:33.978Z,4.32
2023-07-03T13:32:19.088Z,4.20
2023-07-03T13:35:00.353Z,3.63
2023-07-03T13:37:33.947Z,4.22
2023-07-03T13:40:05.444Z,4.13
2023-07-03T13:42:36.453Z,4.75
2023-07-03T13:45:12.823Z,4.28
2023-07-03T13:47:43.814Z,4.80
2023-07-03T14:22:24.132Z,4.00
2023-07-03T14:24:55.818Z,3.92
2023-07-03T14:27:26.969Z,4.28
2023-07-03T14:29:57.887Z,4.47
2023-07-03T14:32:39.839Z,4.50
2023-07-03T14:35:20.190Z,4.65
2023-07-03T14:37:54.091Z,4.40
2023-07-03T14:40:25.067Z,4.85
2023-07-03T14:42:56.347Z,4.15
2023-07-03T14:45:27.285Z,4.45
2023-07-03T14:47:58.785Z,3.85
2023-07-03T14:50:29.860Z,4.00
2023-07-03T14:53:04.333Z,4.15
2023-07-03T14:55:35.318Z,3.80
2023-07-03T14:58:06.234Z,4.40
2023-07-03T15:00:37.159Z,4.22
2023-07-03T15:03:08.607Z,4.35
2023-07-03T15:05:39.768Z,4.32
2023-07-03T15:08:13.752Z,4.28
2023-07-03T15:10:44.725Z,3.60
2023-07-03T15:13:16.472Z,4.57
2023-07-03T15:15:51.520Z,3.80
2023-07-03T15:18:22.803Z,3.97
2023-07-03T15:20:53.721Z,3.97
2023-07-03T15:23:27.408Z,3.80
2023-07-03T15:26:06.996Z,3.70
2023-07-03T15:28:38.399Z,3.92
2023-07-03T15:31:09.906Z,4.38
2023-07-03T15:33:41.502Z,4.40
2023-07-03T15:36:12.514Z,4.30
2023-07-03T15:38:46.079Z,3.67
2023-07-03T15:41:17.068Z,3.78
2023-07-03T15:43:49.117Z,3.70
2023-07-03T15:46:20.574Z,3.80
2023-07-03T15:48:52.965Z,4.15
2023-07-03T15:51:24.017Z,4.18
2023-07-03T15:53:57.659Z,3.58
2023-07-03T15:56:28.595Z,3.92
2023-07-03T15:59:02.610Z,3.75
2023-07-03T16:01:35.188Z,3.35
2023-07-03T16:04:06.508Z,3.47
2023-07-03T16:06:39.536Z,3.55
2023-07-03T16:09:17.167Z,3.58
2023-07-03T16:11:48.895Z,3.70
2023-07-03T16:14:21.837Z,3.42
2023-07-03T16:16:52.923Z,3.45
2023-07-03T16:19:24.681Z,4.15
2023-07-03T16:21:55.616Z,3.72
2023-07-03T16:24:29.246Z,3.65
2023-07-03T16:27:00.197Z,3.60
2023-07-03T16:29:31.180Z,3.35
2023-07-03T16:32:02.128Z,3.15
2023-07-03T16:34:33.237Z,3.35
2023-07-03T16:37:04.346Z,4.22
2023-07-03T16:39:37.939Z,3.40
2023-07-03T16:42:09.482Z,3.35
2023-07-03T16:44:40.740Z,3.30
2023-07-03T16:47:11.920Z,3.75
2023-07-03T16:49:43.550Z,3.05
2023-07-03T16:52:14.509Z,3.40
2023-07-03T16:54:48.365Z,3.17
2023-07-03T16:57:19.238Z,3.65
2023-07-03T16:59:50.256Z,3.72
2023-07-03T17:02:21.273Z,3.40
2023-07-03T17:04:57.305Z,3.00
2023-07-03T17:07:28.610Z,3.60
2023-07-03T17:10:02.277Z,3.30
2023-07-03T17:12:33.117Z,3.40
2023-07-03T17:15:04.044Z,2.90
2023-07-03T17:17:35.179Z,3.45
2023-07-03T17:20:06.253Z,3.35
2023-07-03T17:22:37.144Z,3.05
2023-07-03T17:25:11.871Z,3.60
2023-07-03T17:27:42.834Z,3.45
2023-07-03T17:30:14.971Z,3.28
2023-07-03T17:32:45.991Z,3.17
2023-07-03T17:35:17.251Z,3.45
2023-07-03T17:37:48.480Z,3.10
2023-07-03T17:40:22.574Z,3.15
2023-07-03T17:42:54.071Z,3.30
2023-07-03T17:45:25.058Z,3.17
2023-07-03T17:47:56.110Z,3.28
2023-07-03T17:50:27.275Z,2.80
2023-07-03T17:52:58.354Z,3.25
2023-07-03T17:55:34.174Z,3.13
2023-07-03T17:58:05.329Z,2.95
2023-07-03T18:00:36.549Z,3.03
2023-07-03T18:03:07.922Z,3.50
2023-07-03T18:05:39.955Z,2.78
2023-07-03T18:08:11.887Z,3.58
2023-07-03T18:10:45.500Z,3.00
2023-07-03T18:13:17.003Z,3.70
2023-07-03T18:15:50.235Z,3.25
2023-07-03T18:18:22.262Z,2.97
2023-07-03T18:20:53.362Z,2.78
2023-07-03T18:23:24.480Z,2.90
2023-07-03T18:25:58.351Z,3.95
2023-07-03T18:28:29.912Z,2.55
2023-07-03T18:31:01.812Z,2.78
2023-07-03T18:33:35.179Z,3.22
2023-07-03T18:36:07.238Z,2.63
2023-07-03T18:38:38.730Z,2.53
2023-07-03T18:41:12.678Z,2.67
2023-07-03T18:43:43.743Z,2.90
2023-07-03T18:46:14.794Z,2.72
2023-07-03T18:48:45.734Z,2.22
2023-07-03T18:51:19.776Z,2.97
2023-07-03T18:53:50.917Z,2.60
2023-07-03T18:56:24.654Z,2.30
2023-07-03T18:58:55.998Z,2.50
2023-07-03T19:01:28.212Z,3.10
2023-07-03T19:03:59.524Z,2.55
2023-07-03T19:06:31.179Z,2.63
2023-07-03T19:09:02.356Z,2.95
2023-07-03T19:11:35.874Z,2.83
2023-07-03T19:14:06.752Z,2.65
2023-07-03T19:16:37.784Z,2.70
2023-07-03T19:19:08.996Z,2.88
2023-07-03T19:21:40.002Z,2.65
2023-07-03T19:24:11.041Z,2.72
2023-07-03T19:26:44.775Z,2.85
2023-07-03T19:29:15.634Z,2.53
2023-07-03T19:31:46.682Z,2.35
2023-07-03T19:34:17.604Z,2.70
2023-07-03T19:36:48.703Z,2.67
2023-07-03T19:39:20.885Z,2.10
2023-07-03T19:41:54.517Z,2.35
2023-07-03T19:44:25.506Z,2.60
2023-07-03T19:46:56.558Z,1.98
2023-07-03T19:49:27.627Z,2.20
2023-07-03T19:51:59.522Z,2.70
2023-07-03T19:54:35.533Z,2.63
2023-07-03T19:57:10.101Z,2.33
2023-07-03T19:59:41.997Z,2.67
2023-07-03T20:02:13.070Z,2.40
2023-07-03T20:04:44.151Z,2.78
2023-07-03T20:07:15.235Z,2.13
2023-07-03T20:09:46.192Z,2.08
2023-07-03T20:12:20.725Z,2.70
2023-07-03T20:14:51.719Z,2.85
2023-07-03T20:17:22.893Z,3.33
2023-07-03T20:19:55.008Z,2.60
2023-07-03T20:22:25.906Z,2.65
2023-07-03T20:24:56.866Z,2.80
2023-07-03T20:27:33.069Z,2.53
2023-07-03T20:30:04.333Z,2.50
2023-07-03T20:32:37.017Z,2.65
2023-07-03T20:35:09.525Z,2.28
2023-07-03T20:37:40.646Z,2.83
2023-07-03T20:40:12.700Z,2.55
2023-07-03T20:42:48.410Z,2.75
2023-07-03T20:45:20.012Z,3.20
2023-07-03T20:47:52.092Z,2.47
2023-07-03T20:50:27.148Z,3.33
2023-07-03T20:53:11.174Z,2.30
2023-07-03T20:55:44.716Z,2.67
2023-07-03T20:58:18.271Z,2.50
2023-07-03T21:00:49.716Z,2.30
2023-07-03T21:03:20.819Z,2.50
2023-07-03T21:05:52.073Z,2.67
2023-07-03T21:08:23.336Z,2.42
2023-07-03T21:11:00.857Z,2.40
2023-07-03T21:13:34.446Z,3.50
2023-07-03T21:16:06.327Z,2.80
2023-07-03T21:18:38.151Z,2.97
2023-07-03T21:21:20.082Z,3.03
2023-07-03T21:23:51.414Z,2.40
2023-07-03T21:26:24.451Z,2.60
2023-07-03T21:28:58.620Z,2.70
2023-07-03T21:31:31.741Z,2.60
2023-07-03T21:34:02.951Z,3.00
2023-07-03T21:36:35.536Z,3.10
2023-07-03T21:39:08.172Z,3.00
2023-07-03T21:41:42.978Z,3.15
2023-07-03T21:44:18.966Z,2.78
2023-07-03T21:46:50.347Z,3.10
2023-07-03T21:49:22.495Z,3.03
2023-07-03T21:51:53.501Z,3.08
2023-07-03T21:54:25.589Z,3.25
2023-07-03T21:57:01.226Z,2.65
2023-07-03T21:59:34.836Z,3.38
2023-07-03T22:02:05.911Z,2.95
2023-07-03T22:04:37.681Z,2.88
2023-07-03T22:07:13.725Z,2.80
2023-07-03T22:09:46.540Z,2.50
2023-07-03T22:12:17.840Z,3.50
2023-07-03T22:14:51.355Z,2.83
2023-07-03T22:17:24.143Z,3.15
2023-07-03T22:19:55.472Z,2.72
2023-07-03T22:22:28.151Z,3.00
2023-07-03T22:24:59.056Z,3.13
2023-07-03T22:27:30.044Z,2.42
2023-07-03T22:30:03.800Z,3.25
2023-07-03T22:32:35.397Z,3.63
2023-07-03T22:35:07.466Z,3.47
2023-07-03T22:37:38.396Z,3.22
2023-07-03T22:40:11.304Z,2.83
2023-07-03T22:42:42.873Z,2.80
2023-07-03T22:45:17.234Z,3.15
2023-07-03T22:47:48.148Z,2.20
2023-07-03T22:50:19.253Z,2.75
2023-07-03T22:52:52.416Z,2.97
2023-07-03T22:55:23.478Z,2.90
2023-07-03T22:57:54.459Z,2.63
2023-07-03T23:00:28.163Z,3.83
2023-07-03T23:02:59.082Z,2.70
2023-07-03T23:05:30.168Z,3.55
2023-07-03T23:08:01.088Z,3.13
2023-07-03T23:10:32.442Z,3.20
2023-07-03T23:13:03.268Z,2.53
2023-07-03T23:15:36.824Z,3.20
2023-07-03T23:18:08.377Z,2.97
2023-07-03T23:20:39.286Z,2.97
2023-07-03T23:23:10.302Z,2.78
2023-07-03T23:25:41.528Z,3.15
2023-07-03T23:28:12.468Z,2.88
2023-07-03T23:30:46.011Z,2.83
2023-07-03T23:33:16.865Z,2.72
2023-07-03T23:35:48.353Z,3.30
2023-07-03T23:38:19.539Z,3.38
2023-07-03T23:40:51.281Z,2.85
2023-07-03T23:43:22.911Z,3.25
2023-07-03T23:45:56.445Z,3.45
2023-07-03T23:48:28.548Z,3.28
2023-07-03T23:51:02.321Z,2.78
2023-07-03T23:53:35.188Z,2.78
2023-07-03T23:56:08.495Z,2.80
2023-07-03T23:58:41.136Z,2.95
